sensor_id;sensor_type;location;lat;lon;timestamp;pressure;altitude;pressure_sealevel;temperature;humidity
12666;BME280;58531;59.050;17.416;2023-03-21T00:02:23;100604.50;;;0.01;100.00
12666;BME280;58531;59.050;17.416;2023-03-21T00:04:51;100605.22;;;-0.02;100.00
12666;BME280;58531;59.050;17.416;2023-03-21T00:07:19;100603.31;;;-0.04;100.00
12666;BME280;58531;59.050;17.416;2023-03-21T00:09:49;100604.78;;;-0.10;100.00
12666;BME280;58531;59.050;17.416;2023-03-21T00:12:16;100598.69;;;-0.21;100.00
12666;BME280;58531;59.050;17.416;2023-03-21T00:14:45;100598.25;;;-0.30;100.00
12666;BME280;58531;59.050;17.416;2023-03-21T00:17:12;100602.00;;;-0.31;100.00
12666;BME280;58531;59.050;17.416;2023-03-21T00:19:40;100597.47;;;-0.31;100.00
12666;BME280;58531;59.050;17.416;2023-03-21T00:22:09;100597.78;;;-0.39;100.00
12666;BME280;58531;59.050;17.416;2023-03-21T00:24:36;100596.16;;;-0.51;100.00
12666;BME280;58531;59.050;17.416;2023-03-21T00:27:05;100596.53;;;-0.52;100.00
12666;BME280;58531;59.050;17.416;2023-03-21T00:29:33;100599.53;;;-0.54;100.00
12666;BME280;58531;59.050;17.416;2023-03-21T00:32:01;100598.41;;;-0.53;100.00
12666;BME280;58531;59.050;17.416;2023-03-21T00:34:28;100601.03;;;-0.53;100.00
12666;BME280;58531;59.050;17.416;2023-03-21T00:36:57;100596.13;;;-0.58;100.00
12666;BME280;58531;59.050;17.416;2023-03-21T00:39:26;100593.78;;;-0.66;100.00
12666;BME280;58531;59.050;17.416;2023-03-21T00:41:53;100595.97;;;-0.72;100.00
12666;BME280;58531;59.050;17.416;2023-03-21T00:44:23;100590.34;;;-0.70;100.00
12666;BME280;58531;59.050;17.416;2023-03-21T00:46:50;100595.91;;;-0.75;100.00
12666;BME280;58531;59.050;17.416;2023-03-21T00:49:18;100594.06;;;-0.75;100.00
12666;BME280;58531;59.050;17.416;2023-03-21T00:51:46;100590.34;;;-0.74;100.00
12666;BME280;58531;59.050;17.416;2023-03-21T00:54:16;100588.84;;;-0.71;100.00
12666;BME280;58531;59.050;17.416;2023-03-21T00:56:43;100589.97;;;-0.72;100.00
12666;BME280;58531;59.050;17.416;2023-03-21T00:59:10;100586.84;;;-0.85;100.00
12666;BME280;58531;59.050;17.416;2023-03-21T01:01:40;100590.56;;;-0.89;100.00
12666;BME280;58531;59.050;17.416;2023-03-21T01:04:08;100597.66;;;-0.90;100.00
12666;BME280;58531;59.050;17.416;2023-03-21T01:06:40;100594.53;;;-0.99;100.00
12666;BME280;58531;59.050;17.416;2023-03-21T01:09:11;100594.88;;;-1.04;100.00
12666;BME280;58531;59.050;17.416;2023-03-21T01:11:38;100602.75;;;-1.04;100.00
12666;BME280;58531;59.050;17.416;2023-03-21T01:14:07;100601.97;;;-1.04;100.00
12666;BME280;58531;59.050;17.416;2023-03-21T01:16:34;100603.09;;;-1.05;100.00
12666;BME280;58531;59.050;17.416;2023-03-21T01:19:05;100603.84;;;-1.05;100.00
12666;BME280;58531;59.050;17.416;2023-03-21T01:21:32;100598.97;;;-1.06;100.00
12666;BME280;58531;59.050;17.416;2023-03-21T01:24:00;100600.44;;;-1.09;100.00
12666;BME280;58531;59.050;17.416;2023-03-21T01:26:27;100608.31;;;-1.09;100.00
12666;BME280;58531;59.050;17.416;2023-03-21T01:28:54;100609.03;;;-1.08;100.00
12666;BME280;58531;59.050;17.416;2023-03-21T01:31:22;100609.09;;;-1.05;100.00
12666;BME280;58531;59.050;17.416;2023-03-21T01:33:49;100609.41;;;-1.10;100.00
12666;BME280;58531;59.050;17.416;2023-03-21T01:36:22;100604.19;;;-1.06;100.00
12666;BME280;58531;59.050;17.416;2023-03-21T01:38:49;100609.34;;;-1.13;100.00
12666;BME280;58531;59.050;17.416;2023-03-21T01:41:20;100603.41;;;-1.10;100.00
12666;BME280;58531;59.050;17.416;2023-03-21T01:43:50;100616.91;;;-1.08;100.00
12666;BME280;58531;59.050;17.416;2023-03-21T01:46:39;100608.25;;;-1.12;100.00
12666;BME280;58531;59.050;17.416;2023-03-21T01:49:11;100612.69;;;-1.16;100.00
12666;BME280;58531;59.050;17.416;2023-03-21T01:51:45;100609.72;;;-1.15;100.00
12666;BME280;58531;59.050;17.416;2023-03-21T01:54:18;100610.44;;;-1.17;100.00
12666;BME280;58531;59.050;17.416;2023-03-21T01:56:50;100609.25;;;-1.20;100.00
12666;BME280;58531;59.050;17.416;2023-03-21T01:59:23;100613.38;;;-1.19;100.00
12666;BME280;58531;59.050;17.416;2023-03-21T02:01:50;100613.78;;;-1.17;100.00
12666;BME280;58531;59.050;17.416;2023-03-21T02:04:19;100616.41;;;-1.17;100.00
12666;BME280;58531;59.050;17.416;2023-03-21T02:06:56;100617.13;;;-1.20;100.00
12666;BME280;58531;59.050;17.416;2023-03-21T02:09:27;100609.56;;;-1.25;100.00
12666;BME280;58531;59.050;17.416;2023-03-21T02:11:57;100614.41;;;-1.27;100.00
12666;BME280;58531;59.050;17.416;2023-03-21T02:14:24;100621.16;;;-1.26;100.00
12666;BME280;58531;59.050;17.416;2023-03-21T02:17:00;100618.16;;;-1.28;100.00
12666;BME280;58531;59.050;17.416;2023-03-21T02:22:38;100612.06;;;-1.35;100.00
12666;BME280;58531;59.050;17.416;2023-03-21T02:25:32;100610.13;;;-1.42;100.00
12666;BME280;58531;59.050;17.416;2023-03-21T02:28:10;100616.41;;;-1.46;100.00
12666;BME280;58531;59.050;17.416;2023-03-21T02:31:00;100618.97;;;-1.50;100.00
12666;BME280;58531;59.050;17.416;2023-03-21T02:34:02;100618.88;;;-1.57;100.00
12666;BME280;58531;59.050;17.416;2023-03-21T02:37:03;100619.19;;;-1.62;100.00
12666;BME280;58531;59.050;17.416;2023-03-21T02:39:40;100624.00;;;-1.64;100.00
12666;BME280;58531;59.050;17.416;2023-03-21T02:42:12;100615.06;;;-1.63;100.00
12666;BME280;58531;59.050;17.416;2023-03-21T02:44:44;100632.22;;;-1.65;100.00
12666;BME280;58531;59.050;17.416;2023-03-21T02:47:18;100627.69;;;-1.68;100.00
12666;BME280;58531;59.050;17.416;2023-03-21T02:49:48;100626.94;;;-1.69;100.00
12666;BME280;58531;59.050;17.416;2023-03-21T02:52:21;100628.00;;;-1.73;100.00
12666;BME280;58531;59.050;17.416;2023-03-21T02:54:50;100619.28;;;-1.81;100.00
12666;BME280;58531;59.050;17.416;2023-03-21T02:57:18;100614.75;;;-1.84;100.00
12666;BME280;58531;59.050;17.416;2023-03-21T02:59:47;100619.19;;;-1.88;100.00
12666;BME280;58531;59.050;17.416;2023-03-21T03:02:19;100613.13;;;-1.92;100.00
12666;BME280;58531;59.050;17.416;2023-03-21T03:04:48;100622.44;;;-1.94;100.00
12666;BME280;58531;59.050;17.416;2023-03-21T03:07:27;100619.47;;;-1.93;100.00
12666;BME280;58531;59.050;17.416;2023-03-21T03:12:55;100621.16;;;-2.04;100.00
12666;BME280;58531;59.050;17.416;2023-03-21T03:15:33;100626.28;;;-2.11;100.00
12666;BME280;58531;59.050;17.416;2023-03-21T03:18:10;100623.50;;;-2.21;100.00
12666;BME280;58531;59.050;17.416;2023-03-21T03:20:48;100631.34;;;-2.21;100.00
12666;BME280;58531;59.050;17.416;2023-03-21T03:23:26;100632.75;;;-2.27;100.00
12666;BME280;58531;59.050;17.416;2023-03-21T03:25:59;100632.97;;;-2.35;100.00
12666;BME280;58531;59.050;17.416;2023-03-21T03:28:33;100635.88;;;-2.40;100.00
12666;BME280;58531;59.050;17.416;2023-03-21T03:31:04;100632.03;;;-2.46;100.00
12666;BME280;58531;59.050;17.416;2023-03-21T03:33:35;100633.81;;;-2.50;100.00
12666;BME280;58531;59.050;17.416;2023-03-21T03:36:05;100638.28;;;-2.51;100.00
12666;BME280;58531;59.050;17.416;2023-03-21T03:38:36;100636.03;;;-2.52;100.00
12666;BME280;58531;59.050;17.416;2023-03-21T03:41:09;100642.63;;;-2.58;100.00
12666;BME280;58531;59.050;17.416;2023-03-21T03:43:42;100648.13;;;-2.63;100.00
12666;BME280;58531;59.050;17.416;2023-03-21T03:46:19;100645.81;;;-2.68;100.00
12666;BME280;58531;59.050;17.416;2023-03-21T03:48:53;100643.88;;;-2.71;100.00
12666;BME280;58531;59.050;17.416;2023-03-21T03:51:24;100640.09;;;-2.74;100.00
12666;BME280;58531;59.050;17.416;2023-03-21T03:53:56;100645.94;;;-2.80;100.00
12666;BME280;58531;59.050;17.416;2023-03-21T03:56:26;100648.34;;;-2.91;100.00
12666;BME280;58531;59.050;17.416;2023-03-21T03:58:55;100641.47;;;-2.99;100.00
12666;BME280;58531;59.050;17.416;2023-03-21T04:01:22;100644.72;;;-3.05;100.00
12666;BME280;58531;59.050;17.416;2023-03-21T04:03:49;100644.91;;;-3.14;100.00
12666;BME280;58531;59.050;17.416;2023-03-21T04:06:17;100644.09;;;-3.18;100.00
12666;BME280;58531;59.050;17.416;2023-03-21T04:08:46;100646.28;;;-3.20;100.00
12666;BME280;58531;59.050;17.416;2023-03-21T04:11:17;100650.72;;;-3.20;100.00
12666;BME280;58531;59.050;17.416;2023-03-21T04:13:45;100641.38;;;-3.21;100.00
12666;BME280;58531;59.050;17.416;2023-03-21T04:16:12;100646.19;;;-3.23;100.00
12666;BME280;58531;59.050;17.416;2023-03-21T04:18:39;100646.47;;;-3.28;100.00
12666;BME280;58531;59.050;17.416;2023-03-21T04:21:08;100652.72;;;-3.33;100.00
12666;BME280;58531;59.050;17.416;2023-03-21T04:23:35;100651.47;;;-3.39;100.00
12666;BME280;58531;59.050;17.416;2023-03-21T04:26:03;100651.41;;;-3.42;100.00
12666;BME280;58531;59.050;17.416;2023-03-21T04:28:32;100655.38;;;-3.48;100.00
12666;BME280;58531;59.050;17.416;2023-03-21T04:31:00;100669.50;;;-3.49;100.00
12666;BME280;58531;59.050;17.416;2023-03-21T04:33:27;100670.66;;;-3.47;100.00
12666;BME280;58531;59.050;17.416;2023-03-21T04:35:54;100674.13;;;-3.43;100.00
12666;BME280;58531;59.050;17.416;2023-03-21T04:38:23;100667.13;;;-3.39;100.00
12666;BME280;58531;59.050;17.416;2023-03-21T04:40:55;100669.81;;;-3.35;100.00
12666;BME280;58531;59.050;17.416;2023-03-21T04:43:22;100673.25;;;-3.31;100.00
12666;BME280;58531;59.050;17.416;2023-03-21T04:45:52;100669.53;;;-3.30;100.00
12666;BME280;58531;59.050;17.416;2023-03-21T04:48:20;100675.34;;;-3.21;100.00
12666;BME280;58531;59.050;17.416;2023-03-21T04:50:49;100675.91;;;-3.12;100.00
12666;BME280;58531;59.050;17.416;2023-03-21T04:53:17;100679.81;;;-3.03;100.00
12666;BME280;58531;59.050;17.416;2023-03-21T04:55:44;100681.06;;;-2.97;100.00
12666;BME280;58531;59.050;17.416;2023-03-21T04:58:11;100682.72;;;-2.89;100.00
12666;BME280;58531;59.050;17.416;2023-03-21T05:00:38;100684.38;;;-2.81;100.00
12666;BME280;58531;59.050;17.416;2023-03-21T05:03:07;100682.38;;;-2.68;100.00
12666;BME280;58531;59.050;17.416;2023-03-21T05:05:35;100686.75;;;-2.57;100.00
12666;BME280;58531;59.050;17.416;2023-03-21T05:08:04;100676.06;;;-2.48;100.00
12666;BME280;58531;59.050;17.416;2023-03-21T05:10:31;100690.09;;;-2.37;100.00
12666;BME280;58531;59.050;17.416;2023-03-21T05:12:58;100688.41;;;-2.27;100.00
12666;BME280;58531;59.050;17.416;2023-03-21T05:15:25;100675.84;;;-2.18;100.00
12666;BME280;58531;59.050;17.416;2023-03-21T05:17:52;100678.72;;;-2.04;100.00
12666;BME280;58531;59.050;17.416;2023-03-21T05:20:21;100676.06;;;-1.85;100.00
12666;BME280;58531;59.050;17.416;2023-03-21T05:22:49;100672.53;;;-1.70;100.00
12666;BME280;58531;59.050;17.416;2023-03-21T05:25:17;100666.00;;;-1.57;100.00
12666;BME280;58531;59.050;17.416;2023-03-21T05:27:45;100667.63;;;-1.49;100.00
12666;BME280;58531;59.050;17.416;2023-03-21T05:30:18;100669.28;;;-1.37;100.00
12666;BME280;58531;59.050;17.416;2023-03-21T05:32:46;100678.78;;;-1.26;100.00
12666;BME280;58531;59.050;17.416;2023-03-21T05:35:14;100676.72;;;-1.14;100.00
12666;BME280;58531;59.050;17.416;2023-03-21T05:37:43;100685.88;;;-1.01;100.00
12666;BME280;58531;59.050;17.416;2023-03-21T05:40:11;100684.91;;;-0.89;100.00
12666;BME280;58531;59.050;17.416;2023-03-21T05:42:39;100680.56;;;-0.78;100.00
12666;BME280;58531;59.050;17.416;2023-03-21T05:45:08;100691.19;;;-0.64;100.00
12666;BME280;58531;59.050;17.416;2023-03-21T05:47:35;100679.25;;;-0.62;100.00
12666;BME280;58531;59.050;17.416;2023-03-21T05:50:02;100689.03;;;-0.55;100.00
12666;BME280;58531;59.050;17.416;2023-03-21T05:52:29;100690.72;;;-0.40;100.00
12666;BME280;58531;59.050;17.416;2023-03-21T05:54:58;100686.84;;;-0.50;100.00
12666;BME280;58531;59.050;17.416;2023-03-21T05:57:25;100690.03;;;-0.34;100.00
12666;BME280;58531;59.050;17.416;2023-03-21T05:59:53;100687.50;;;-0.23;100.00
12666;BME280;58531;59.050;17.416;2023-03-21T06:02:20;100690.91;;;-0.19;100.00
12666;BME280;58531;59.050;17.416;2023-03-21T06:04:47;100696.22;;;-0.16;100.00
12666;BME280;58531;59.050;17.416;2023-03-21T06:07:15;100701.16;;;-0.07;100.00
12666;BME280;58531;59.050;17.416;2023-03-21T06:09:42;100695.59;;;-0.03;100.00
12666;BME280;58531;59.050;17.416;2023-03-21T06:12:11;100696.34;;;-0.02;100.00
12666;BME280;58531;59.050;17.416;2023-03-21T06:14:38;100703.06;;;-0.04;100.00
12666;BME280;58531;59.050;17.416;2023-03-21T06:17:05;100703.03;;;-0.08;100.00
12666;BME280;58531;59.050;17.416;2023-03-21T06:19:32;100707.25;;;-0.36;100.00
12666;BME280;58531;59.050;17.416;2023-03-21T06:22:00;100708.59;;;-0.49;100.00
12666;BME280;58531;59.050;17.416;2023-03-21T06:24:27;100707.81;;;-0.50;100.00
12666;BME280;58531;59.050;17.416;2023-03-21T06:26:55;100707.97;;;-0.39;100.00
12666;BME280;58531;59.050;17.416;2023-03-21T06:29:23;100703.91;;;0.06;100.00
12666;BME280;58531;59.050;17.416;2023-03-21T06:31:50;100697.28;;;0.19;100.00
12666;BME280;58531;59.050;17.416;2023-03-21T06:34:18;100708.00;;;0.04;100.00
12666;BME280;58531;59.050;17.416;2023-03-21T06:36:45;100701.56;;;0.38;100.00
12666;BME280;58531;59.050;17.416;2023-03-21T06:39:12;100709.06;;;0.39;100.00
12666;BME280;58531;59.050;17.416;2023-03-21T06:41:40;100719.16;;;0.34;100.00
12666;BME280;58531;59.050;17.416;2023-03-21T06:44:07;100720.66;;;0.35;100.00
12666;BME280;58531;59.050;17.416;2023-03-21T06:46:35;100726.00;;;0.45;100.00
12666;BME280;58531;59.050;17.416;2023-03-21T06:49:02;100725.72;;;0.61;100.00
12666;BME280;58531;59.050;17.416;2023-03-21T06:51:30;100727.84;;;0.95;100.00
12666;BME280;58531;59.050;17.416;2023-03-21T06:53:57;100735.38;;;0.97;100.00
12666;BME280;58531;59.050;17.416;2023-03-21T06:56:24;100740.69;;;1.07;100.00
12666;BME280;58531;59.050;17.416;2023-03-21T06:58:51;100730.91;;;1.04;100.00
12666;BME280;58531;59.050;17.416;2023-03-21T07:01:19;100741.78;;;1.03;100.00
12666;BME280;58531;59.050;17.416;2023-03-21T07:03:49;100732.38;;;0.98;100.00
12666;BME280;58531;59.050;17.416;2023-03-21T07:06:18;100736.59;;;1.13;100.00
12666;BME280;58531;59.050;17.416;2023-03-21T07:08:45;100744.53;;;1.20;100.00
12666;BME280;58531;59.050;17.416;2023-03-21T07:11:13;100740.78;;;1.24;100.00
12666;BME280;58531;59.050;17.416;2023-03-21T07:13:40;100728.88;;;1.51;100.00
12666;BME280;58531;59.050;17.416;2023-03-21T07:16:08;100742.13;;;1.90;100.00
12666;BME280;58531;59.050;17.416;2023-03-21T07:18:35;100734.88;;;1.55;100.00
12666;BME280;58531;59.050;17.416;2023-03-21T07:21:05;100741.97;;;1.41;100.00
12666;BME280;58531;59.050;17.416;2023-03-21T07:23:32;100741.59;;;1.39;100.00
12666;BME280;58531;59.050;17.416;2023-03-21T07:25:59;100738.97;;;1.39;100.00
12666;BME280;58531;59.050;17.416;2023-03-21T07:28:26;100740.94;;;1.66;100.00
12666;BME280;58531;59.050;17.416;2023-03-21T07:30:57;100742.50;;;1.85;100.00
12666;BME280;58531;59.050;17.416;2023-03-21T07:33:25;100743.69;;;2.22;100.00
12666;BME280;58531;59.050;17.416;2023-03-21T07:35:53;100747.09;;;2.16;100.00
12666;BME280;58531;59.050;17.416;2023-03-21T07:38:23;100744.81;;;2.31;100.00
12666;BME280;58531;59.050;17.416;2023-03-21T07:40:50;100750.88;;;2.46;100.00
12666;BME280;58531;59.050;17.416;2023-03-21T07:43:17;100752.38;;;2.50;100.00
12666;BME280;58531;59.050;17.416;2023-03-21T07:45:45;100759.50;;;2.39;100.00
12666;BME280;58531;59.050;17.416;2023-03-21T07:48:12;100753.13;;;2.47;100.00
12666;BME280;58531;59.050;17.416;2023-03-21T07:50:39;100752.34;;;2.36;100.00
12666;BME280;58531;59.050;17.416;2023-03-21T07:53:06;100752.38;;;2.50;100.00
12666;BME280;58531;59.050;17.416;2023-03-21T07:55:35;100751.97;;;2.14;100.00
12666;BME280;58531;59.050;17.416;2023-03-21T07:58:02;100751.19;;;2.03;100.00
12666;BME280;58531;59.050;17.416;2023-03-21T08:00:30;100742.47;;;1.74;100.00
12666;BME280;58531;59.050;17.416;2023-03-21T08:02:58;100753.78;;;1.82;100.00
12666;BME280;58531;59.050;17.416;2023-03-21T08:05:27;100748.94;;;1.98;100.00
12666;BME280;58531;59.050;17.416;2023-03-21T08:07:54;100753.84;;;2.30;100.00
12666;BME280;58531;59.050;17.416;2023-03-21T08:10:21;100749.75;;;2.78;100.00
12666;BME280;58531;59.050;17.416;2023-03-21T08:12:50;100755.38;;;2.77;100.00
12666;BME280;58531;59.050;17.416;2023-03-21T08:15:18;100759.88;;;2.59;100.00
12666;BME280;58531;59.050;17.416;2023-03-21T08:17:45;100754.66;;;2.52;100.00
12666;BME280;58531;59.050;17.416;2023-03-21T08:20:13;100750.09;;;2.63;100.00
12666;BME280;58531;59.050;17.416;2023-03-21T08:22:42;100753.88;;;2.58;100.00
12666;BME280;58531;59.050;17.416;2023-03-21T08:25:11;100751.22;;;2.83;100.00
12666;BME280;58531;59.050;17.416;2023-03-21T08:27:39;100748.50;;;3.21;100.00
12666;BME280;58531;59.050;17.416;2023-03-21T08:30:10;100753.78;;;3.25;100.00
12666;BME280;58531;59.050;17.416;2023-03-21T08:32:37;100751.47;;;3.37;100.00
12666;BME280;58531;59.050;17.416;2023-03-21T08:35:06;100749.56;;;3.45;100.00
12666;BME280;58531;59.050;17.416;2023-03-21T08:37:35;100750.69;;;3.47;100.00
12666;BME280;58531;59.050;17.416;2023-03-21T08:40:02;100751.38;;;3.58;100.00
12666;BME280;58531;59.050;17.416;2023-03-21T08:42:31;100746.06;;;3.68;100.00
12666;BME280;58531;59.050;17.416;2023-03-21T08:44:59;100748.25;;;3.80;100.00
12666;BME280;58531;59.050;17.416;2023-03-21T08:47:27;100748.16;;;3.98;100.00
12666;BME280;58531;59.050;17.416;2023-03-21T08:49:54;100750.69;;;4.19;98.09
12666;BME280;58531;59.050;17.416;2023-03-21T08:52:21;100751.97;;;3.90;99.59
12666;BME280;58531;59.050;17.416;2023-03-21T08:54:48;100753.38;;;4.12;100.00
12666;BME280;58531;59.050;17.416;2023-03-21T08:57:15;100760.53;;;4.65;98.00
12666;BME280;58531;59.050;17.416;2023-03-21T08:59:42;100759.03;;;4.64;98.98
12666;BME280;58531;59.050;17.416;2023-03-21T09:02:10;100756.53;;;4.87;97.47
12666;BME280;58531;59.050;17.416;2023-03-21T09:04:41;100754.88;;;4.63;96.83
12666;BME280;58531;59.050;17.416;2023-03-21T09:07:08;100758.69;;;4.99;98.44
12666;BME280;58531;59.050;17.416;2023-03-21T09:09:35;100746.66;;;4.95;98.19
12666;BME280;58531;59.050;17.416;2023-03-21T09:12:03;100751.78;;;5.42;95.68
12666;BME280;58531;59.050;17.416;2023-03-21T09:14:30;100741.53;;;5.14;94.03
12666;BME280;58531;59.050;17.416;2023-03-21T09:16:57;100741.00;;;4.93;96.37
12666;BME280;58531;59.050;17.416;2023-03-21T09:19:24;100746.09;;;5.10;96.48
12666;BME280;58531;59.050;17.416;2023-03-21T09:21:54;100747.09;;;5.23;96.72
12666;BME280;58531;59.050;17.416;2023-03-21T09:24:21;100747.97;;;5.13;94.98
12666;BME280;58531;59.050;17.416;2023-03-21T09:26:48;100751.72;;;5.49;95.81
12666;BME280;58531;59.050;17.416;2023-03-21T09:29:16;100749.81;;;5.50;94.05
12666;BME280;58531;59.050;17.416;2023-03-21T09:31:45;100738.72;;;5.28;94.07
12666;BME280;58531;59.050;17.416;2023-03-21T09:34:12;100738.00;;;4.87;93.68
12666;BME280;58531;59.050;17.416;2023-03-21T09:36:40;100736.00;;;4.98;96.68
12666;BME280;58531;59.050;17.416;2023-03-21T09:39:10;100741.47;;;5.21;97.64
12666;BME280;58531;59.050;17.416;2023-03-21T09:41:53;100740.03;;;5.47;94.49
12666;BME280;58531;59.050;17.416;2023-03-21T09:44:34;100739.53;;;5.25;94.60
12666;BME280;58531;59.050;17.416;2023-03-21T09:47:08;100743.81;;;5.46;95.76
12666;BME280;58531;59.050;17.416;2023-03-21T09:49:43;100748.78;;;5.40;95.02
12666;BME280;58531;59.050;17.416;2023-03-21T09:52:18;100755.88;;;5.50;97.97
12666;BME280;58531;59.050;17.416;2023-03-21T09:54:48;100760.41;;;5.83;91.64
12666;BME280;58531;59.050;17.416;2023-03-21T09:57:30;100750.03;;;6.18;91.32
12666;BME280;58531;59.050;17.416;2023-03-21T10:00:00;100754.19;;;6.46;90.84
12666;BME280;58531;59.050;17.416;2023-03-21T10:02:35;100759.91;;;6.44;91.02
12666;BME280;58531;59.050;17.416;2023-03-21T10:05:11;100751.47;;;6.00;94.48
12666;BME280;58531;59.050;17.416;2023-03-21T10:07:41;100744.03;;;5.88;94.73
12666;BME280;58531;59.050;17.416;2023-03-21T10:10:19;100743.81;;;5.79;92.87
12666;BME280;58531;59.050;17.416;2023-03-21T10:12:49;100743.44;;;5.77;99.05
12666;BME280;58531;59.050;17.416;2023-03-21T10:15:19;100740.75;;;5.81;99.36
12666;BME280;58531;59.050;17.416;2023-03-21T10:17:50;100742.53;;;5.87;97.11
12666;BME280;58531;59.050;17.416;2023-03-21T10:20:21;100734.84;;;6.22;94.79
12666;BME280;58531;59.050;17.416;2023-03-21T10:22:50;100730.59;;;6.28;93.34
12666;BME280;58531;59.050;17.416;2023-03-21T10:25:21;100733.47;;;6.37;96.16
12666;BME280;58531;59.050;17.416;2023-03-21T10:27:50;100726.16;;;6.45;91.18
12666;BME280;58531;59.050;17.416;2023-03-21T10:30:28;100723.91;;;6.43;92.71
12666;BME280;58531;59.050;17.416;2023-03-21T10:32:58;100724.66;;;6.44;93.98
12666;BME280;58531;59.050;17.416;2023-03-21T10:35:29;100725.47;;;6.64;88.28
12666;BME280;58531;59.050;17.416;2023-03-21T10:37:58;100728.22;;;6.57;89.57
12666;BME280;58531;59.050;17.416;2023-03-21T10:40:27;100728.69;;;6.52;89.33
12666;BME280;58531;59.050;17.416;2023-03-21T10:42:54;100724.25;;;6.68;92.67
12666;BME280;58531;59.050;17.416;2023-03-21T10:45:23;100732.44;;;6.97;90.50
12666;BME280;58531;59.050;17.416;2023-03-21T10:47:51;100722.19;;;6.98;85.49
12666;BME280;58531;59.050;17.416;2023-03-21T10:50:19;100714.63;;;6.97;87.91
12666;BME280;58531;59.050;17.416;2023-03-21T10:52:52;100710.75;;;7.01;89.07
12666;BME280;58531;59.050;17.416;2023-03-21T10:55:27;100718.94;;;7.10;82.59
12666;BME280;58531;59.050;17.416;2023-03-21T10:57:59;100716.66;;;6.90;86.47
12666;BME280;58531;59.050;17.416;2023-03-21T11:00:32;100720.16;;;6.87;86.84
12666;BME280;58531;59.050;17.416;2023-03-21T11:03:01;100716.16;;;6.75;83.35
12666;BME280;58531;59.050;17.416;2023-03-21T11:05:34;100708.53;;;6.77;85.91
12666;BME280;58531;59.050;17.416;2023-03-21T11:08:03;100712.47;;;6.69;87.19
12666;BME280;58531;59.050;17.416;2023-03-21T11:10:34;100711.34;;;6.90;85.81
12666;BME280;58531;59.050;17.416;2023-03-21T11:13:07;100698.28;;;6.98;83.92
12666;BME280;58531;59.050;17.416;2023-03-21T11:15:51;100697.13;;;6.99;84.82
12666;BME280;58531;59.050;17.416;2023-03-21T11:18:20;100698.22;;;7.21;87.10
12666;BME280;58531;59.050;17.416;2023-03-21T11:20:52;100702.38;;;7.22;84.89
12666;BME280;58531;59.050;17.416;2023-03-21T11:23:20;100702.38;;;7.22;80.18
12666;BME280;58531;59.050;17.416;2023-03-21T11:25:52;100698.84;;;7.09;81.47
12666;BME280;58531;59.050;17.416;2023-03-21T11:28:21;100695.03;;;7.10;81.18
12666;BME280;58531;59.050;17.416;2023-03-21T11:30:51;100693.81;;;7.34;78.01
12666;BME280;58531;59.050;17.416;2023-03-21T11:33:20;100694.63;;;7.31;76.87
12666;BME280;58531;59.050;17.416;2023-03-21T11:36:01;100690.81;;;7.32;75.95
12666;BME280;58531;59.050;17.416;2023-03-21T11:38:31;100686.16;;;7.36;77.58
12666;BME280;58531;59.050;17.416;2023-03-21T11:41:01;100685.19;;;7.46;77.18
12666;BME280;58531;59.050;17.416;2023-03-21T11:43:30;100689.22;;;7.70;78.60
12666;BME280;58531;59.050;17.416;2023-03-21T11:45:59;100680.22;;;8.00;76.34
12666;BME280;58531;59.050;17.416;2023-03-21T11:48:27;100682.59;;;7.94;73.81
12666;BME280;58531;59.050;17.416;2023-03-21T11:50:58;100681.63;;;8.04;75.58
12666;BME280;58531;59.050;17.416;2023-03-21T11:53:39;100681.22;;;8.21;76.35
12666;BME280;58531;59.050;17.416;2023-03-21T11:56:19;100673.59;;;8.68;69.03
12666;BME280;58531;59.050;17.416;2023-03-21T11:59:02;100673.56;;;8.84;69.94
12666;BME280;58531;59.050;17.416;2023-03-21T12:01:36;100665.31;;;8.78;70.14
12666;BME280;58531;59.050;17.416;2023-03-21T12:04:15;100661.31;;;8.58;67.92
12666;BME280;58531;59.050;17.416;2023-03-21T12:06:48;100664.03;;;8.26;69.70
12666;BME280;58531;59.050;17.416;2023-03-21T12:09:29;100667.31;;;7.98;70.99
12666;BME280;58531;59.050;17.416;2023-03-21T12:12:06;100652.47;;;8.17;72.17
12666;BME280;58531;59.050;17.416;2023-03-21T12:14:41;100657.78;;;8.32;74.72
12666;BME280;58531;59.050;17.416;2023-03-21T12:17:20;100658.69;;;8.70;72.74
12666;BME280;58531;59.050;17.416;2023-03-21T12:20:05;100659.66;;;8.76;73.11
12666;BME280;58531;59.050;17.416;2023-03-21T12:22:43;100667.84;;;8.41;70.81
12666;BME280;58531;59.050;17.416;2023-03-21T12:25:18;100663.69;;;8.40;72.59
12666;BME280;58531;59.050;17.416;2023-03-21T12:27:59;100659.31;;;8.46;72.83
12666;BME280;58531;59.050;17.416;2023-03-21T12:30:43;100659.63;;;8.64;71.98
12666;BME280;58531;59.050;17.416;2023-03-21T12:36:15;100661.50;;;9.20;68.17
12666;BME280;58531;59.050;17.416;2023-03-21T12:38:56;100660.63;;;9.11;68.53
12666;BME280;58531;59.050;17.416;2023-03-21T12:41:29;100661.16;;;9.18;71.81
12666;BME280;58531;59.050;17.416;2023-03-21T12:44:03;100658.75;;;8.83;69.45
12666;BME280;58531;59.050;17.416;2023-03-21T12:46:35;100651.47;;;9.12;69.84
12666;BME280;58531;59.050;17.416;2023-03-21T12:49:07;100652.19;;;9.00;68.45
12666;BME280;58531;59.050;17.416;2023-03-21T12:51:38;100661.47;;;8.51;68.12
12666;BME280;58531;59.050;17.416;2023-03-21T12:54:13;100654.72;;;8.18;72.69
12666;BME280;58531;59.050;17.416;2023-03-21T12:56:47;100650.88;;;8.35;73.09
12666;BME280;58531;59.050;17.416;2023-03-21T12:59:26;100653.09;;;8.52;70.52
12666;BME280;58531;59.050;17.416;2023-03-21T13:01:59;100649.44;;;8.46;69.72
12666;BME280;58531;59.050;17.416;2023-03-21T13:04:35;100647.00;;;8.52;70.50